createdAt,value
2022-11-25T00:01:25.330Z,58.35
2022-11-25T00:03:53.090Z,54.13
2022-11-25T00:06:21.616Z,48.75
2022-11-25T00:08:49.804Z,44.03
2022-11-25T00:11:17.606Z,45.72
2022-11-25T00:13:45.480Z,44.17
2022-11-25T00:16:13.731Z,45.63
2022-11-25T00:18:40.940Z,46.05
2022-11-25T00:21:09.363Z,46.97
2022-11-25T00:23:37.058Z,41.53
2022-11-25T00:26:23.068Z,49.80
2022-11-25T00:28:50.476Z,50.20
2022-11-25T00:31:22.651Z,40.63
2022-11-25T00:33:50.538Z,42.97
2022-11-25T00:36:19.943Z,40.55
2022-11-25T00:38:47.449Z,45.00
2022-11-25T00:41:33.696Z,47.97
2022-11-25T00:44:19.571Z,62.13
2022-11-25T00:46:46.673Z,49.90
2022-11-25T00:49:13.816Z,49.60
2022-11-25T00:51:40.951Z,56.17
2022-11-25T00:54:08.039Z,51.30
2022-11-25T00:56:35.122Z,60.35
2022-11-25T00:59:02.406Z,64.18
2022-11-25T01:01:29.492Z,62.88
2022-11-25T01:03:56.607Z,55.30
2022-11-25T01:06:24.073Z,63.00
2022-11-25T01:08:51.343Z,63.40
2022-11-25T01:11:19.639Z,55.33
2022-11-25T01:13:47.085Z,73.05
2022-11-25T01:16:16.229Z,72.85
2022-11-25T01:18:43.674Z,80.43
2022-11-25T01:21:12.289Z,61.70
2022-11-25T01:23:39.829Z,66.40
2022-11-25T01:26:08.764Z,73.15
2022-11-25T01:28:36.273Z,65.60
2022-11-25T01:31:04.059Z,84.65
2022-11-25T01:33:34.837Z,76.88
2022-11-25T01:36:06.014Z,79.90
2022-11-25T01:38:33.524Z,61.50
2022-11-25T01:41:00.853Z,77.95
2022-11-25T01:43:28.735Z,70.15
2022-11-25T01:45:58.115Z,69.53
2022-11-25T01:48:42.505Z,70.72
2022-11-25T01:51:17.580Z,64.32
2022-11-25T01:53:44.744Z,84.65
2022-11-25T01:56:11.823Z,69.93
2022-11-25T01:58:39.632Z,68.15
2022-11-25T02:01:06.888Z,61.15
2022-11-25T02:03:35.838Z,71.45
2022-11-25T02:06:21.851Z,69.70
2022-11-25T02:08:50.637Z,92.07
2022-11-25T02:11:19.081Z,74.80
2022-11-25T02:13:48.052Z,64.72
2022-11-25T02:16:15.335Z,65.57
2022-11-25T02:18:42.486Z,59.80
2022-11-25T02:21:09.910Z,70.75
2022-11-25T02:23:43.958Z,85.68
2022-11-25T02:26:11.205Z,57.80
2022-11-25T02:28:38.680Z,77.53
2022-11-25T02:31:07.164Z,66.63
2022-11-25T02:33:34.475Z,50.28
2022-11-25T02:36:11.856Z,55.00
2022-11-25T02:38:58.674Z,60.92
2022-11-25T02:41:25.721Z,61.70
2022-11-25T02:43:52.769Z,50.55
2022-11-25T02:46:22.773Z,47.28
2022-11-25T02:49:08.393Z,48.72
2022-11-25T02:51:37.088Z,51.60
2022-11-25T02:54:04.284Z,44.88
2022-11-25T02:56:33.515Z,47.65
2022-11-25T02:59:00.805Z,49.42
2022-11-25T03:01:29.724Z,52.30
2022-11-25T03:03:56.980Z,51.63
2022-11-25T03:06:24.385Z,54.85
2022-11-25T03:08:51.727Z,56.22
2022-11-25T03:11:18.816Z,49.22
2022-11-25T03:13:45.967Z,52.72
2022-11-25T03:16:13.075Z,47.08
2022-11-25T03:18:40.183Z,45.17
2022-11-25T03:21:07.631Z,47.42
2022-11-25T03:23:34.721Z,45.83
2022-11-25T03:26:05.357Z,54.20
2022-11-25T03:28:32.494Z,50.78
2022-11-25T03:30:59.549Z,46.05
2022-11-25T03:33:26.628Z,60.72
2022-11-25T03:35:53.769Z,45.17
2022-11-25T03:38:20.904Z,59.30
2022-11-25T03:40:48.203Z,51.42
2022-11-25T03:43:15.440Z,55.83
2022-11-25T03:45:42.622Z,43.08
2022-11-25T03:48:09.828Z,49.17
2022-11-25T03:50:36.956Z,51.53
2022-11-25T03:53:04.009Z,44.28
2022-11-25T03:55:31.196Z,49.05
2022-11-25T03:57:58.325Z,47.58
2022-11-25T04:00:25.490Z,46.92
2022-11-25T04:02:52.678Z,46.55
2022-11-25T04:05:19.886Z,45.30
2022-11-25T04:07:46.938Z,48.60
2022-11-25T04:10:13.992Z,48.25
2022-11-25T04:12:47.204Z,51.40
2022-11-25T04:15:15.325Z,51.45
2022-11-25T04:17:42.458Z,49.97
2022-11-25T04:20:09.878Z,55.25
2022-11-25T04:22:37.332Z,56.85
2022-11-25T04:25:04.673Z,49.05
2022-11-25T04:27:32.167Z,52.13
2022-11-25T04:29:59.247Z,51.20
2022-11-25T04:32:27.314Z,58.58
2022-11-25T04:34:54.767Z,51.15
2022-11-25T04:37:21.892Z,50.50
2022-11-25T04:39:49.136Z,58.47
2022-11-25T04:42:39.454Z,48.65
2022-11-25T04:45:26.170Z,49.35
2022-11-25T04:47:53.385Z,54.70
2022-11-25T04:50:22.666Z,53.75
2022-11-25T04:52:49.845Z,55.70
2022-11-25T04:55:17.074Z,53.33
2022-11-25T04:57:44.198Z,51.78
2022-11-25T05:00:11.655Z,57.38
2022-11-25T05:02:39.257Z,77.50
2022-11-25T05:05:06.717Z,49.35
2022-11-25T05:07:33.987Z,71.18
2022-11-25T05:10:01.314Z,52.13
2022-11-25T05:12:29.808Z,53.45
2022-11-25T05:14:56.970Z,62.83
2022-11-25T05:17:30.826Z,58.78
2022-11-25T05:19:58.396Z,56.33
2022-11-25T05:22:26.984Z,56.95
2022-11-25T05:24:54.285Z,60.67
2022-11-25T05:27:22.072Z,70.78
2022-11-25T05:29:55.459Z,67.68
2022-11-25T05:32:23.294Z,62.47
2022-11-25T05:34:50.395Z,68.00
2022-11-25T05:37:21.289Z,66.40
2022-11-25T05:39:51.178Z,58.58
2022-11-25T05:42:18.324Z,56.97
2022-11-25T05:44:45.426Z,63.75
2022-11-25T05:47:12.533Z,61.05
2022-11-25T05:49:39.677Z,57.55
2022-11-25T05:52:06.773Z,62.10
2022-11-25T05:54:33.955Z,60.78
2022-11-25T05:57:01.357Z,68.53
2022-11-25T05:59:28.475Z,56.30
2022-11-25T06:01:55.792Z,50.47
2022-11-25T06:04:22.928Z,50.35
2022-11-25T06:06:50.175Z,44.97
2022-11-25T06:09:17.323Z,52.67
2022-11-25T06:11:44.437Z,63.13
2022-11-25T06:14:11.541Z,44.13
2022-11-25T06:16:38.796Z,52.20
2022-11-25T06:19:06.747Z,58.97
2022-11-25T06:21:34.000Z,52.00
2022-11-25T06:24:01.490Z,53.45
2022-11-25T06:26:28.643Z,54.30
2022-11-25T06:28:56.464Z,61.15
2022-11-25T06:31:25.002Z,63.42
2022-11-25T06:33:52.906Z,58.95
2022-11-25T06:36:21.212Z,68.10
2022-11-25T06:38:52.549Z,65.38
2022-11-25T06:43:46.788Z,70.47
2022-11-25T06:46:24.540Z,76.97
2022-11-25T06:48:54.161Z,65.13
2022-11-25T06:51:21.604Z,70.65
2022-11-25T06:53:48.816Z,63.90
2022-11-25T06:56:20.289Z,66.45
2022-11-25T06:58:47.999Z,68.85
2022-11-25T07:01:19.805Z,56.45
2022-11-25T07:03:48.730Z,66.63
2022-11-25T07:06:16.954Z,83.55
2022-11-25T07:08:44.533Z,72.53
2022-11-25T07:11:14.432Z,57.45
2022-11-25T07:13:41.498Z,83.93
2022-11-25T07:16:08.724Z,60.28
2022-11-25T07:18:37.364Z,84.25
2022-11-25T07:21:12.808Z,67.95
2022-11-25T07:23:40.680Z,68.13
2022-11-25T07:26:09.036Z,46.47
2022-11-25T07:28:36.845Z,75.55
2022-11-25T07:31:23.249Z,76.72
2022-11-25T07:33:56.203Z,71.55
2022-11-25T07:36:23.769Z,64.63
2022-11-25T07:38:50.907Z,58.38
2022-11-25T07:41:22.349Z,58.28
2022-11-25T07:43:50.733Z,69.95
2022-11-25T07:46:26.795Z,56.95
2022-11-25T07:48:55.989Z,66.32
2022-11-25T07:51:28.350Z,68.43
2022-11-25T07:53:56.517Z,58.17
2022-11-25T07:56:23.650Z,54.03
2022-11-25T07:58:50.770Z,56.45
2022-11-25T08:01:18.966Z,54.22
2022-11-25T08:03:47.181Z,52.65
2022-11-25T08:06:15.780Z,55.17
2022-11-25T08:08:43.759Z,52.50
2022-11-25T08:11:12.126Z,54.30
2022-11-25T08:13:39.542Z,49.13
2022-11-25T08:16:07.152Z,51.22
2022-11-25T08:18:34.680Z,47.35
2022-11-25T08:21:04.091Z,52.88
2022-11-25T08:23:31.872Z,55.53
2022-11-25T08:25:58.961Z,44.13
2022-11-25T08:28:26.041Z,39.22
2022-11-25T08:30:53.233Z,38.38
2022-11-25T08:33:20.323Z,43.70
2022-11-25T08:35:53.670Z,40.42
2022-11-25T08:38:20.740Z,40.70
2022-11-25T08:40:47.856Z,36.58
2022-11-25T08:43:15.073Z,43.63
2022-11-25T08:45:42.342Z,42.38
2022-11-25T08:48:09.468Z,36.85
2022-11-25T08:50:36.644Z,34.80
2022-11-25T08:53:03.735Z,36.17
2022-11-25T08:55:32.684Z,37.95
2022-11-25T08:57:59.823Z,42.97
2022-11-25T09:00:26.927Z,37.42
2022-11-25T09:02:54.130Z,38.15
2022-11-25T09:05:21.341Z,47.10
2022-11-25T09:07:48.451Z,44.72
2022-11-25T09:10:17.567Z,35.92
2022-11-25T09:12:44.859Z,42.25
2022-11-25T09:15:12.330Z,41.15
2022-11-25T09:17:39.495Z,37.00
2022-11-25T09:20:07.009Z,42.67
2022-11-25T09:22:34.087Z,39.83
2022-11-25T09:25:01.178Z,37.58
2022-11-25T09:27:28.718Z,40.55
2022-11-25T09:29:55.882Z,37.35
2022-11-25T09:32:22.970Z,33.28
2022-11-25T09:34:50.142Z,34.88
2022-11-25T09:37:19.724Z,31.52
2022-11-25T09:39:46.804Z,34.40
2022-11-25T09:42:51.746Z,32.95
2022-11-25T09:45:37.609Z,35.70
2022-11-25T09:48:16.755Z,35.70
2022-11-25T09:50:57.009Z,37.97
2022-11-25T09:53:42.548Z,33.90
2022-11-25T09:56:17.564Z,36.03
2022-11-25T09:59:11.241Z,35.92
2022-11-25T10:01:58.694Z,40.03
2022-11-25T10:04:27.896Z,46.58
2022-11-25T10:06:57.621Z,41.13
2022-11-25T10:09:26.672Z,43.45
2022-11-25T10:11:59.227Z,42.97
2022-11-25T10:14:45.310Z,49.83
2022-11-25T10:17:30.601Z,38.60
2022-11-25T10:20:00.394Z,39.28
2022-11-25T10:22:29.041Z,42.78
2022-11-25T10:24:58.741Z,45.58
2022-11-25T10:27:29.293Z,41.65
2022-11-25T10:30:03.815Z,38.47
2022-11-25T10:32:34.818Z,43.25
2022-11-25T10:35:05.568Z,37.85
2022-11-25T10:37:37.165Z,35.00
2022-11-25T10:40:04.607Z,35.28
2022-11-25T10:42:32.653Z,31.05
2022-11-25T10:44:59.838Z,28.85
2022-11-25T10:47:53.562Z,34.13
2022-11-25T10:50:40.585Z,32.83
2022-11-25T10:53:12.708Z,30.83
2022-11-25T10:55:39.812Z,34.38
2022-11-25T10:58:25.816Z,31.58
2022-11-25T11:01:02.216Z,31.92
2022-11-25T11:03:29.476Z,32.95
2022-11-25T11:05:56.573Z,33.15
2022-11-25T11:08:37.814Z,33.30
2022-11-25T11:11:17.028Z,35.47
2022-11-25T11:13:44.826Z,31.35
2022-11-25T11:16:34.869Z,36.63
2022-11-25T11:19:02.188Z,34.72
2022-11-25T11:21:31.191Z,34.40
2022-11-25T11:23:59.761Z,29.55
2022-11-25T11:26:30.022Z,36.90
2022-11-25T11:28:58.190Z,34.17
2022-11-25T11:31:29.032Z,40.03
2022-11-25T11:33:56.269Z,32.08
2022-11-25T11:36:49.944Z,29.45
2022-11-25T11:39:26.729Z,35.63
2022-11-25T11:42:09.207Z,27.50
2022-11-25T11:44:54.922Z,33.60
2022-11-25T11:47:33.930Z,31.50
2022-11-25T11:50:06.275Z,31.15
2022-11-25T11:52:59.623Z,27.65
2022-11-25T11:55:40.669Z,28.33
2022-11-25T11:58:35.131Z,28.38
2022-11-25T12:01:05.314Z,32.20
2022-11-25T12:03:36.597Z,36.65
2022-11-25T12:08:34.702Z,31.42
2022-11-25T12:11:03.988Z,31.27
2022-11-25T12:13:32.925Z,33.22
2022-11-25T12:16:10.264Z,35.60
2022-11-25T12:18:49.430Z,32.90
2022-11-25T12:21:19.593Z,36.97
2022-11-25T12:23:57.309Z,32.42
2022-11-25T12:26:53.940Z,32.92
2022-11-25T12:29:26.003Z,36.70
2022-11-25T12:31:57.202Z,32.95
2022-11-25T12:37:03.660Z,33.90
2022-11-25T12:39:37.170Z,34.67
2022-11-25T12:42:06.729Z,35.67
2022-11-25T12:44:49.371Z,27.33
2022-11-25T12:47:16.521Z,34.83
2022-11-25T12:49:45.020Z,29.67
2022-11-25T12:52:21.400Z,31.02
2022-11-25T12:55:07.401Z,36.63
2022-11-25T12:57:49.320Z,35.70
2022-11-25T13:05:55.653Z,39.47
2022-11-25T13:08:44.308Z,38.15
2022-11-25T13:11:15.614Z,36.10
2022-11-25T13:13:58.625Z,36.05
2022-11-25T13:16:27.036Z,39.30
2022-11-25T13:18:55.708Z,45.85
2022-11-25T13:21:27.536Z,42.35
2022-11-25T13:23:56.432Z,35.78
2022-11-25T13:26:29.860Z,41.38
2022-11-25T13:28:57.624Z,35.85
2022-11-25T13:31:34.895Z,40.40
2022-11-25T13:34:09.893Z,43.42
2022-11-25T13:36:51.002Z,45.30
2022-11-25T13:39:37.477Z,38.58
2022-11-25T13:42:19.961Z,44.17
2022-11-25T13:44:50.156Z,42.08
2022-11-25T13:47:33.491Z,44.72
2022-11-25T13:50:02.000Z,41.28
2022-11-25T13:52:34.379Z,36.92
2022-11-25T13:55:03.774Z,43.95
2022-11-25T13:57:32.032Z,36.28
2022-11-25T14:00:06.955Z,35.13
2022-11-25T14:02:41.834Z,41.42
2022-11-25T14:05:12.009Z,37.58
2022-11-25T14:08:07.735Z,42.05
2022-11-25T14:10:53.879Z,37.92
2022-11-25T14:13:27.797Z,40.03
2022-11-25T14:16:13.682Z,46.92
2022-11-25T14:19:28.104Z,38.83
2022-11-25T14:21:44.475Z,41.78
2022-11-25T14:24:21.019Z,37.63
2022-11-25T14:26:51.806Z,43.88
2022-11-25T14:29:18.957Z,46.72
2022-11-25T14:31:47.584Z,49.90
2022-11-25T14:34:18.563Z,49.00
2022-11-25T14:36:49.381Z,47.05
2022-11-25T14:39:26.354Z,45.70
2022-11-25T14:42:10.133Z,36.05
2022-11-25T14:44:41.453Z,41.67
2022-11-25T14:49:51.606Z,47.22
2022-11-25T14:54:55.879Z,38.05
2022-11-25T14:57:30.538Z,31.02
2022-11-25T14:59:59.106Z,41.63
2022-11-25T15:02:34.874Z,34.22
2022-11-25T15:05:13.985Z,34.38
2022-11-25T15:07:44.699Z,27.50
2022-11-25T15:10:47.245Z,25.95
2022-11-25T15:13:23.659Z,27.35
2022-11-25T15:15:51.457Z,24.63
2022-11-25T15:18:20.815Z,28.80
2022-11-25T15:20:54.395Z,26.02
2022-11-25T15:23:25.075Z,25.33
2022-11-25T15:25:53.124Z,28.73
2022-11-25T15:28:20.355Z,26.92
2022-11-25T15:31:00.713Z,26.88
2022-11-25T15:33:29.698Z,26.35
2022-11-25T16:29:32.862Z,24.33
2022-11-25T16:32:00.605Z,21.50
2022-11-25T16:34:29.726Z,21.75
2022-11-25T16:36:57.027Z,20.00
2022-11-25T16:39:24.120Z,20.35
2022-11-25T16:42:04.159Z,19.85
2022-11-25T16:44:35.196Z,16.10
2022-11-25T16:47:02.637Z,18.90
2022-11-25T16:49:31.881Z,18.13
2022-11-25T16:51:59.018Z,17.92
2022-11-25T16:54:26.088Z,19.52
2022-11-25T16:56:54.132Z,16.30
2022-11-25T16:59:30.301Z,18.88
2022-11-25T17:01:57.820Z,15.07
2022-11-25T17:04:25.065Z,15.27
2022-11-25T17:07:24.254Z,14.18
2022-11-25T17:09:39.704Z,15.25
2022-11-25T17:12:10.803Z,15.77
2022-11-25T17:14:38.421Z,13.80
2022-11-25T17:17:05.864Z,13.88
2022-11-25T17:19:33.133Z,15.38
2022-11-25T17:22:00.273Z,12.27
2022-11-25T17:24:27.521Z,10.35
2022-11-25T17:26:59.961Z,12.45
2022-11-25T17:34:58.603Z,9.93
2022-11-25T17:37:26.218Z,11.23
2022-11-25T17:39:54.066Z,10.75
2022-11-25T17:42:39.918Z,11.25
2022-11-25T17:45:12.644Z,10.25
2022-11-25T17:47:39.904Z,10.55
2022-11-25T17:50:26.236Z,9.77
2022-11-25T17:52:53.402Z,11.10
2022-11-25T17:55:22.773Z,9.18
2022-11-25T17:57:50.314Z,16.13
2022-11-25T18:00:19.476Z,11.77
2022-11-25T18:02:46.892Z,9.43
2022-11-25T18:05:15.725Z,9.60
2022-11-25T18:07:44.411Z,20.10
2022-11-25T18:10:12.984Z,8.70
2022-11-25T18:12:40.575Z,10.38
2022-11-25T18:15:08.499Z,14.70
2022-11-25T18:17:36.720Z,17.13
2022-11-25T18:20:15.197Z,11.98
2022-11-25T18:22:45.379Z,8.43
2022-11-25T18:25:14.220Z,8.27
2022-11-25T18:27:41.792Z,8.38
2022-11-25T18:30:19.651Z,7.72
2022-11-25T18:32:47.362Z,8.70
2022-11-25T18:35:18.722Z,9.77
2022-11-25T18:40:14.519Z,9.50
2022-11-25T18:42:42.343Z,10.32
2022-11-25T18:45:38.985Z,8.82
2022-11-25T18:48:12.841Z,9.27
2022-11-25T18:50:40.018Z,7.57
2022-11-25T18:53:07.109Z,9.75
2022-11-25T18:55:34.223Z,9.32
2022-11-25T18:58:01.877Z,10.55
2022-11-25T19:00:34.494Z,9.48
2022-11-25T19:03:01.862Z,6.63
2022-11-25T19:05:30.436Z,9.20
2022-11-25T19:07:58.248Z,8.82
2022-11-25T19:10:28.356Z,7.75
2022-11-25T19:12:58.104Z,7.68
2022-11-25T19:15:26.342Z,8.32
2022-11-25T19:17:58.554Z,8.65
2022-11-25T19:20:26.388Z,8.18
2022-11-25T19:22:57.866Z,6.13
2022-11-25T19:25:27.722Z,6.72
2022-11-25T19:27:56.894Z,8.25
2022-11-25T19:30:25.754Z,7.95
2022-11-25T19:32:55.450Z,10.30
2022-11-25T19:35:40.516Z,9.25
2022-11-25T19:38:21.501Z,9.65
2022-11-25T19:40:49.438Z,8.13
2022-11-25T19:43:16.581Z,9.82
2022-11-25T19:45:44.816Z,10.52
2022-11-25T19:48:14.492Z,7.05
2022-11-25T19:50:43.060Z,14.52
2022-11-25T19:53:14.788Z,9.05
2022-11-25T19:55:41.946Z,8.82
2022-11-25T19:58:09.297Z,8.05
2022-11-25T20:00:36.631Z,8.93
2022-11-25T20:03:03.851Z,10.40
2022-11-25T20:05:32.967Z,9.70
2022-11-25T20:08:00.577Z,12.00
2022-11-25T20:10:28.907Z,10.63
2022-11-25T20:12:56.354Z,9.55
2022-11-25T20:15:24.049Z,7.65
2022-11-25T20:17:52.814Z,9.80
2022-11-25T20:20:31.935Z,8.77
2022-11-25T20:23:02.638Z,9.63
2022-11-25T20:25:30.230Z,7.82
2022-11-25T20:27:57.666Z,9.40
2022-11-25T20:30:26.230Z,7.82
2022-11-25T20:32:53.445Z,8.98
2022-11-25T20:35:21.045Z,9.02
2022-11-25T20:37:53.563Z,7.72
2022-11-25T20:40:22.039Z,8.63
2022-11-25T20:42:50.010Z,7.70
2022-11-25T20:45:18.680Z,8.15
2022-11-25T20:47:47.103Z,7.72
2022-11-25T20:50:14.565Z,6.45
2022-11-25T20:52:42.683Z,6.00
2022-11-25T20:55:19.079Z,5.40
2022-11-25T20:57:46.376Z,6.57
2022-11-25T21:00:18.076Z,5.97
2022-11-25T21:02:45.493Z,5.57
2022-11-25T21:05:12.896Z,9.02
2022-11-25T21:07:40.239Z,5.15
2022-11-25T21:10:34.839Z,6.15
2022-11-25T21:13:09.309Z,7.88
2022-11-25T21:15:36.744Z,6.18
2022-11-25T21:18:03.889Z,5.32
2022-11-25T21:20:31.025Z,6.88
2022-11-25T21:22:58.599Z,6.85
2022-11-25T21:25:26.078Z,6.25
2022-11-25T21:27:53.228Z,5.50
2022-11-25T21:30:28.069Z,6.38
2022-11-25T21:32:56.032Z,5.43
2022-11-25T21:35:25.554Z,5.32
2022-11-25T21:37:52.736Z,4.68
2022-11-25T21:40:22.657Z,5.70
2022-11-25T21:42:49.745Z,4.88
2022-11-25T21:45:17.242Z,4.60
2022-11-25T21:47:44.359Z,5.43
2022-11-25T21:50:15.487Z,4.63
2022-11-25T21:52:42.740Z,4.80
2022-11-25T21:55:12.246Z,4.90
2022-11-25T21:57:39.677Z,4.25
2022-11-25T22:00:18.078Z,5.10
2022-11-25T22:02:45.238Z,5.47
2022-11-25T22:05:19.314Z,5.25
2022-11-25T22:07:46.483Z,5.40
2022-11-25T22:10:14.646Z,6.15
2022-11-25T22:12:43.142Z,6.43
2022-11-25T22:15:15.118Z,6.30
2022-11-25T22:17:42.595Z,5.35
2022-11-25T22:20:24.347Z,7.70
2022-11-25T22:22:51.476Z,6.93
2022-11-25T22:25:18.641Z,6.35
2022-11-25T22:27:46.009Z,6.53
2022-11-25T22:30:18.029Z,6.82
2022-11-25T22:32:50.000Z,8.00
2022-11-25T22:35:18.208Z,7.97
2022-11-25T22:37:49.338Z,6.93
2022-11-25T22:40:19.236Z,8.07
2022-11-25T22:42:47.835Z,8.18
2022-11-25T22:45:21.608Z,6.50
2022-11-25T22:47:48.996Z,8.23
2022-11-25T22:50:21.722Z,7.78
2022-11-25T22:52:49.312Z,7.53
2022-11-25T22:55:22.641Z,7.22
2022-11-25T22:57:50.199Z,8.45
2022-11-25T23:00:27.807Z,6.82
2022-11-25T23:02:56.265Z,7.75
2022-11-25T23:05:32.625Z,7.45
2022-11-25T23:08:01.248Z,7.35
2022-11-25T23:10:30.248Z,6.93
2022-11-25T23:12:57.668Z,6.57
2022-11-25T23:15:25.175Z,5.20
2022-11-25T23:17:52.362Z,6.15
2022-11-25T23:20:45.878Z,6.90
2022-11-25T23:23:14.276Z,6.13
2022-11-25T23:25:41.440Z,7.03
2022-11-25T23:28:08.553Z,7.72
2022-11-25T23:30:35.996Z,6.85
2022-11-25T23:33:03.635Z,6.53
2022-11-25T23:35:36.381Z,7.55
2022-11-25T23:38:04.436Z,6.47
2022-11-25T23:40:31.534Z,6.53
2022-11-25T23:42:58.671Z,6.22
2022-11-25T23:45:26.816Z,9.57
2022-11-25T23:47:55.254Z,6.38
2022-11-25T23:50:34.013Z,7.32
2022-11-25T23:53:02.726Z,6.65
2022-11-25T23:55:31.172Z,6.40
2022-11-25T23:57:58.556Z,10.23
